createdAt,value
2022-12-17T00:02:01.538Z,5.15
2022-12-17T00:04:47.649Z,5.65
2022-12-17T00:07:33.482Z,6.22
2022-12-17T00:10:19.581Z,5.25
2022-12-17T00:13:09.088Z,4.68
2022-12-17T00:15:55.942Z,5.63
2022-12-17T00:18:42.580Z,5.18
2022-12-17T00:21:28.919Z,6.22
2022-12-17T00:24:15.145Z,6.28
2022-12-17T00:27:01.399Z,6.05
2022-12-17T00:29:47.484Z,7.13
2022-12-17T00:32:33.441Z,7.22
2022-12-17T00:35:19.548Z,6.72
2022-12-17T00:38:06.080Z,7.82
2022-12-17T00:40:52.261Z,6.63
2022-12-17T00:43:38.645Z,7.18
2022-12-17T00:46:25.367Z,5.72
2022-12-17T00:49:11.503Z,7.18
2022-12-17T00:51:57.475Z,5.13
2022-12-17T00:54:43.483Z,5.10
2022-12-17T00:57:29.564Z,5.43
2022-12-17T01:00:15.520Z,5.55
2022-12-17T01:03:01.567Z,2.42
2022-12-17T01:05:47.377Z,5.03
2022-12-17T01:08:34.777Z,3.58
2022-12-17T01:11:22.154Z,3.53
2022-12-17T01:14:08.302Z,3.17
2022-12-17T01:16:56.315Z,2.80
2022-12-17T01:19:42.503Z,2.55
2022-12-17T01:22:28.420Z,3.03
2022-12-17T01:25:14.271Z,3.08
2022-12-17T01:28:00.582Z,2.58
2022-12-17T01:30:46.924Z,2.20
2022-12-17T01:33:33.091Z,2.47
2022-12-17T01:36:19.857Z,2.88
2022-12-17T01:39:05.905Z,2.20
2022-12-17T01:41:52.111Z,3.20
2022-12-17T01:44:56.710Z,2.90
2022-12-17T01:47:42.952Z,2.80
2022-12-17T01:50:30.199Z,3.80
2022-12-17T01:53:17.490Z,2.67
2022-12-17T01:56:03.597Z,4.07
2022-12-17T01:58:51.141Z,2.63
2022-12-17T02:01:37.463Z,2.50
2022-12-17T02:04:23.597Z,3.15
2022-12-17T02:07:15.883Z,3.03
2022-12-17T02:10:24.401Z,2.53
2022-12-17T02:13:12.102Z,3.50
2022-12-17T02:16:05.756Z,2.88
2022-12-17T02:18:55.642Z,3.03
2022-12-17T02:21:42.670Z,3.28
2022-12-17T02:24:31.784Z,3.35
2022-12-17T02:27:21.068Z,3.33
2022-12-17T02:30:11.129Z,2.50
2022-12-17T02:32:58.346Z,3.10
2022-12-17T02:35:50.743Z,2.67
2022-12-17T02:38:41.771Z,3.03
2022-12-17T02:41:29.780Z,3.40
2022-12-17T02:44:16.053Z,3.08
2022-12-17T02:47:02.826Z,3.03
2022-12-17T02:49:49.265Z,2.95
2022-12-17T02:52:37.101Z,2.85
2022-12-17T02:55:23.647Z,2.97
2022-12-17T02:58:10.064Z,2.63
2022-12-17T03:00:57.334Z,2.88
2022-12-17T03:03:50.126Z,2.88
2022-12-17T03:06:36.231Z,2.72
2022-12-17T03:09:22.590Z,3.03
2022-12-17T03:12:08.718Z,2.53
2022-12-17T03:14:54.822Z,3.05
2022-12-17T03:17:41.063Z,3.08
2022-12-17T03:20:27.677Z,2.60
2022-12-17T03:23:20.634Z,2.83
2022-12-17T03:26:06.612Z,2.20
2022-12-17T03:28:52.900Z,2.88
2022-12-17T03:31:38.649Z,2.33
2022-12-17T03:34:24.943Z,2.75
2022-12-17T03:37:10.823Z,2.72
2022-12-17T03:39:56.769Z,3.42
2022-12-17T03:42:42.966Z,2.90
2022-12-17T03:45:29.504Z,2.75
2022-12-17T03:48:28.825Z,3.13
2022-12-17T03:51:15.314Z,3.50
2022-12-17T03:54:01.393Z,2.28
2022-12-17T03:56:47.684Z,2.63
2022-12-17T03:59:33.796Z,2.60
2022-12-17T04:02:20.376Z,2.22
2022-12-17T04:05:06.795Z,2.60
2022-12-17T04:07:53.060Z,3.00
2022-12-17T04:10:39.301Z,3.00
2022-12-17T04:13:25.676Z,3.00
2022-12-17T04:16:11.932Z,3.22
2022-12-17T04:18:58.371Z,2.50
2022-12-17T04:21:44.571Z,2.38
2022-12-17T04:24:30.267Z,2.30
2022-12-17T04:27:16.064Z,2.22
2022-12-17T04:30:15.636Z,2.42
2022-12-17T04:33:01.995Z,2.17
2022-12-17T04:35:48.244Z,1.80
2022-12-17T04:38:34.440Z,2.58
2022-12-17T04:41:20.328Z,2.35
2022-12-17T04:44:06.717Z,2.42
2022-12-17T04:46:52.629Z,2.38
2022-12-17T04:49:39.154Z,2.38
2022-12-17T04:52:25.207Z,2.40
2022-12-17T04:55:11.176Z,1.77
2022-12-17T04:57:57.073Z,2.00
2022-12-17T05:00:42.896Z,2.05
2022-12-17T05:03:33.545Z,2.00
2022-12-17T05:06:20.971Z,2.22
2022-12-17T05:09:07.225Z,2.63
2022-12-17T05:11:53.179Z,2.97
2022-12-17T05:14:39.359Z,2.45
2022-12-17T05:17:26.068Z,2.60
2022-12-17T05:20:14.854Z,2.30
2022-12-17T05:23:01.282Z,2.40
2022-12-17T05:25:47.317Z,2.58
2022-12-17T05:28:33.543Z,2.83
2022-12-17T05:31:19.616Z,2.80
2022-12-17T05:34:05.738Z,3.20
2022-12-17T05:36:51.872Z,3.08
2022-12-17T05:39:37.739Z,3.38
2022-12-17T05:42:23.973Z,5.15
2022-12-17T05:45:09.964Z,5.18
2022-12-17T05:47:55.910Z,4.90
2022-12-17T05:50:41.884Z,4.47
2022-12-17T05:53:28.931Z,4.03
2022-12-17T05:56:15.026Z,4.45
2022-12-17T05:59:00.956Z,5.10
2022-12-17T06:01:47.267Z,4.72
2022-12-17T06:04:33.463Z,4.68
2022-12-17T06:07:19.366Z,4.43
2022-12-17T06:10:13.289Z,3.17
2022-12-17T06:12:59.707Z,4.32
2022-12-17T06:15:45.694Z,4.32
2022-12-17T06:18:31.823Z,4.57
2022-12-17T06:21:17.988Z,4.10
2022-12-17T06:24:04.145Z,3.33
2022-12-17T06:26:50.244Z,3.92
2022-12-17T06:29:36.331Z,3.72
2022-12-17T06:32:22.461Z,3.88
2022-12-17T06:35:08.418Z,4.03
2022-12-17T06:37:54.322Z,4.35
2022-12-17T06:40:40.192Z,4.22
2022-12-17T06:43:26.301Z,4.90
2022-12-17T06:46:12.221Z,4.90
2022-12-17T06:48:58.178Z,4.43
2022-12-17T06:51:44.141Z,5.20
2022-12-17T06:54:29.933Z,5.93
2022-12-17T06:57:15.812Z,6.03
2022-12-17T07:00:01.940Z,5.35
2022-12-17T07:02:48.055Z,5.55
2022-12-17T07:05:34.385Z,5.68
2022-12-17T07:08:20.838Z,4.85
2022-12-17T07:11:06.684Z,4.07
2022-12-17T07:13:52.807Z,3.90
2022-12-17T07:16:39.130Z,4.20
2022-12-17T07:19:27.422Z,4.07
2022-12-17T07:22:13.611Z,4.25
2022-12-17T07:24:59.563Z,4.68
2022-12-17T07:27:47.354Z,3.92
2022-12-17T07:30:33.357Z,4.63
2022-12-17T07:33:22.059Z,8.73
2022-12-17T07:36:08.297Z,7.88
2022-12-17T07:38:54.473Z,5.72
2022-12-17T07:41:40.209Z,6.05
2022-12-17T07:44:26.579Z,5.68
2022-12-17T07:47:12.802Z,6.40
2022-12-17T07:49:58.690Z,6.07
2022-12-17T07:52:44.615Z,7.13
2022-12-17T07:55:30.666Z,6.72
2022-12-17T07:58:21.033Z,6.57
2022-12-17T08:01:07.494Z,7.13
2022-12-17T08:03:53.648Z,7.35
2022-12-17T08:06:39.928Z,8.05
2022-12-17T08:09:25.939Z,8.07
2022-12-17T08:12:12.432Z,8.25
2022-12-17T08:14:58.233Z,8.50
2022-12-17T08:17:44.614Z,10.23
2022-12-17T08:20:31.261Z,9.57
2022-12-17T08:23:20.563Z,8.15
2022-12-17T08:26:14.368Z,10.55
2022-12-17T08:29:00.178Z,10.93
2022-12-17T08:31:46.058Z,9.93
2022-12-17T08:34:31.941Z,11.18
2022-12-17T08:37:18.190Z,15.38
2022-12-17T08:40:04.131Z,17.25
2022-12-17T08:42:50.277Z,16.48
2022-12-17T08:45:36.170Z,18.13
2022-12-17T08:48:26.633Z,18.08
2022-12-17T08:51:12.897Z,17.45
2022-12-17T08:53:58.950Z,17.52
2022-12-17T08:56:45.282Z,16.08
2022-12-17T08:59:31.264Z,18.23
2022-12-17T09:02:17.619Z,17.30
2022-12-17T09:05:04.365Z,16.27
2022-12-17T09:07:50.553Z,15.48
2022-12-17T09:10:36.953Z,14.93
2022-12-17T09:13:23.341Z,18.13
2022-12-17T09:16:16.401Z,15.13
2022-12-17T09:19:02.447Z,14.38
2022-12-17T09:21:49.469Z,14.27
2022-12-17T09:24:35.994Z,12.35
2022-12-17T09:27:22.423Z,11.98
2022-12-17T09:30:08.450Z,12.27
2022-12-17T09:32:54.588Z,20.33
2022-12-17T09:35:40.389Z,18.58
2022-12-17T09:38:26.268Z,11.43
2022-12-17T09:41:12.189Z,11.93
2022-12-17T09:44:03.657Z,13.43
2022-12-17T09:46:53.496Z,11.93
2022-12-17T09:49:44.399Z,11.93
2022-12-17T09:52:50.213Z,17.55
2022-12-17T09:55:51.221Z,22.50
2022-12-17T09:58:41.712Z,22.27
2022-12-17T10:01:44.703Z,23.60
2022-12-17T10:04:33.940Z,28.73
2022-12-17T10:07:20.658Z,24.88
2022-12-17T10:10:10.421Z,20.83
2022-12-17T10:12:56.793Z,16.02
2022-12-17T10:15:42.887Z,15.32
2022-12-17T10:18:31.024Z,16.45
2022-12-17T10:21:18.378Z,19.45
2022-12-17T10:24:04.796Z,19.42
2022-12-17T10:26:52.944Z,14.82
2022-12-17T10:29:47.669Z,11.57
2022-12-17T10:32:34.355Z,12.00
2022-12-17T10:35:40.447Z,12.07
2022-12-17T10:38:33.258Z,10.40
2022-12-17T10:41:19.296Z,15.80
2022-12-17T10:44:05.566Z,14.77
2022-12-17T10:46:52.487Z,15.25
2022-12-17T10:49:42.367Z,14.18
2022-12-17T10:52:31.254Z,12.80
2022-12-17T10:55:19.200Z,11.32
2022-12-17T10:58:06.654Z,12.95
2022-12-17T11:00:56.057Z,11.88
2022-12-17T11:03:42.644Z,12.98
2022-12-17T11:06:28.967Z,11.40
2022-12-17T11:09:15.662Z,11.45
2022-12-17T11:12:07.094Z,11.40
2022-12-17T11:15:00.145Z,11.90
2022-12-17T11:17:46.677Z,10.98
2022-12-17T11:20:44.038Z,10.25
2022-12-17T11:23:35.464Z,9.18
2022-12-17T11:26:33.373Z,10.20
2022-12-17T11:29:19.819Z,8.13
2022-12-17T11:32:08.541Z,7.75
2022-12-17T11:35:08.374Z,6.95
2022-12-17T11:38:13.359Z,7.68
2022-12-17T11:41:04.713Z,7.80
2022-12-17T11:44:04.216Z,8.13
2022-12-17T11:46:53.433Z,8.07
2022-12-17T11:49:42.336Z,8.80
2022-12-17T11:52:35.677Z,8.20
2022-12-17T11:55:21.701Z,8.70
2022-12-17T11:58:16.443Z,9.57
2022-12-17T12:01:10.750Z,10.52
2022-12-17T12:03:59.900Z,10.68
2022-12-17T12:07:04.033Z,9.10
2022-12-17T12:09:55.686Z,8.80
2022-12-17T12:13:08.145Z,9.88
2022-12-17T12:16:02.945Z,8.82
2022-12-17T12:18:57.725Z,11.25
2022-12-17T12:21:55.516Z,9.43
2022-12-17T12:24:58.261Z,10.30
2022-12-17T12:27:53.369Z,10.73
2022-12-17T12:30:50.735Z,9.52
2022-12-17T12:33:57.698Z,8.73
2022-12-17T12:36:45.160Z,8.10
2022-12-17T12:39:32.334Z,7.28
2022-12-17T12:42:23.077Z,7.63
2022-12-17T12:45:09.314Z,9.50
2022-12-17T12:47:59.621Z,7.25
2022-12-17T12:50:50.291Z,6.20
2022-12-17T12:53:36.250Z,5.50
2022-12-17T12:56:22.281Z,6.63
2022-12-17T12:59:08.206Z,4.68
2022-12-17T13:01:56.216Z,4.70
2022-12-17T13:04:50.670Z,4.32
2022-12-17T13:07:22.196Z,10.07
2022-12-17T13:09:51.052Z,9.75
2022-12-17T13:12:20.442Z,9.32
2022-12-17T13:14:59.971Z,8.43
2022-12-17T13:17:33.394Z,8.13
2022-12-17T13:20:24.186Z,7.43
2022-12-17T13:22:53.275Z,7.88
2022-12-17T13:25:24.499Z,7.35
2022-12-17T13:27:51.880Z,7.95
2022-12-17T13:30:20.978Z,9.38
2022-12-17T13:32:55.811Z,6.20
2022-12-17T13:35:26.582Z,7.80
2022-12-17T13:38:03.663Z,8.35
2022-12-17T13:40:40.860Z,8.77
2022-12-17T13:43:16.231Z,7.93
2022-12-17T13:45:44.333Z,8.23
2022-12-17T13:48:20.800Z,8.07
2022-12-17T13:50:55.398Z,8.50
2022-12-17T13:53:22.857Z,10.32
2022-12-17T13:55:54.703Z,10.63
2022-12-17T13:58:33.028Z,12.65
2022-12-17T14:01:07.798Z,10.30
2022-12-17T14:04:05.783Z,10.55
2022-12-17T14:06:23.498Z,8.70
2022-12-17T14:08:52.145Z,9.40
2022-12-17T14:11:38.752Z,11.05
2022-12-17T14:14:12.590Z,9.88
2022-12-17T14:16:43.808Z,8.90
2022-12-17T14:19:14.859Z,8.45
2022-12-17T14:21:42.432Z,9.02
2022-12-17T14:24:13.901Z,10.05
2022-12-17T14:26:51.681Z,10.30
2022-12-17T14:29:32.780Z,8.95
2022-12-17T14:32:09.375Z,9.88
2022-12-17T14:34:43.196Z,9.52
2022-12-17T14:37:17.777Z,11.52
2022-12-17T14:39:46.516Z,10.68
2022-12-17T14:42:34.014Z,12.90
2022-12-17T14:45:22.086Z,12.30
2022-12-17T14:47:57.182Z,10.85
2022-12-17T14:52:53.774Z,11.02
2022-12-17T14:55:30.899Z,9.05
2022-12-17T14:58:09.609Z,9.13
2022-12-17T15:00:44.288Z,10.10
2022-12-17T15:03:19.967Z,10.57
2022-12-17T15:05:51.266Z,9.63
2022-12-17T15:08:18.826Z,9.73
2022-12-17T15:10:46.198Z,10.68
2022-12-17T15:13:13.550Z,9.60
2022-12-17T15:15:40.869Z,10.95
2022-12-17T15:18:08.599Z,11.20
2022-12-17T15:20:36.544Z,10.98
2022-12-17T15:23:03.974Z,10.00
2022-12-17T15:25:31.495Z,11.73
2022-12-17T15:27:59.069Z,10.98
2022-12-17T15:30:26.537Z,12.77
2022-12-17T15:32:53.892Z,12.15
2022-12-17T15:35:22.007Z,12.40
2022-12-17T15:37:49.317Z,12.05
2022-12-17T15:40:16.721Z,12.32
2022-12-17T15:43:06.119Z,12.32
2022-12-17T15:45:33.909Z,10.32
2022-12-17T15:48:01.236Z,11.90
2022-12-17T15:50:28.798Z,12.48
2022-12-17T15:52:56.135Z,12.85
2022-12-17T15:55:23.482Z,10.75
2022-12-17T15:57:50.911Z,11.60
2022-12-17T16:00:18.628Z,10.50
2022-12-17T16:02:46.274Z,9.98
2022-12-17T16:05:13.911Z,9.77
2022-12-17T16:07:43.521Z,9.38
2022-12-17T16:10:11.487Z,9.07
2022-12-17T16:12:38.943Z,9.98
2022-12-17T16:15:09.861Z,10.55
2022-12-17T16:17:37.282Z,9.65
2022-12-17T16:20:06.044Z,10.93
2022-12-17T16:22:33.462Z,11.35
2022-12-17T16:25:00.846Z,11.13
2022-12-17T16:27:28.226Z,11.18
2022-12-17T16:29:55.596Z,11.55
2022-12-17T16:32:22.885Z,10.13
2022-12-17T16:34:50.258Z,10.90
2022-12-17T16:37:17.820Z,11.00
2022-12-17T16:39:45.182Z,10.73
2022-12-17T16:42:12.498Z,10.35
2022-12-17T16:44:40.012Z,10.23
2022-12-17T16:47:07.290Z,11.30
2022-12-17T16:49:34.826Z,10.50
2022-12-17T16:52:03.507Z,10.27
2022-12-17T16:54:32.790Z,11.27
2022-12-17T16:57:03.195Z,11.07
2022-12-17T16:59:31.008Z,11.55
2022-12-17T17:01:58.485Z,11.73
2022-12-17T17:04:26.151Z,11.60
2022-12-17T17:06:55.236Z,10.82
2022-12-17T17:09:23.561Z,10.65
2022-12-17T17:11:52.259Z,9.60
2022-12-17T17:14:20.262Z,10.65
2022-12-17T17:16:47.571Z,12.00
2022-12-17T17:19:15.266Z,11.75
2022-12-17T17:21:43.646Z,12.25
2022-12-17T17:24:20.914Z,12.07
2022-12-17T17:26:49.240Z,11.27
2022-12-17T17:29:16.649Z,11.32
2022-12-17T17:34:31.633Z,12.63
2022-12-17T17:36:59.038Z,11.55
2022-12-17T17:39:27.463Z,11.90
2022-12-17T17:41:55.015Z,12.10
2022-12-17T17:44:22.379Z,10.50
2022-12-17T17:46:50.009Z,9.88
2022-12-17T17:49:17.408Z,10.20
2022-12-17T17:52:08.910Z,9.90
2022-12-17T17:54:32.777Z,9.43
2022-12-17T17:57:00.177Z,8.35
2022-12-17T17:59:33.192Z,6.93
2022-12-17T18:02:01.579Z,7.00
2022-12-17T18:04:29.146Z,8.30
2022-12-17T18:09:43.818Z,6.88
2022-12-17T18:12:29.824Z,5.80
2022-12-17T18:15:13.678Z,7.60
2022-12-17T18:17:41.969Z,4.38
2022-12-17T18:20:09.928Z,7.10
2022-12-17T18:22:40.681Z,4.18
2022-12-17T18:25:08.089Z,4.60
2022-12-17T18:27:35.664Z,5.63
2022-12-17T18:30:02.928Z,26.58
2022-12-17T18:32:30.228Z,18.77
2022-12-17T18:34:57.608Z,9.70
2022-12-17T18:37:24.936Z,8.57
2022-12-17T18:39:52.174Z,7.53
2022-12-17T18:42:38.444Z,7.05
2022-12-17T18:45:06.022Z,6.28
2022-12-17T18:47:33.493Z,7.75
2022-12-17T18:50:00.785Z,4.93
2022-12-17T18:52:28.159Z,4.25
2022-12-17T18:54:55.549Z,4.57
2022-12-17T18:57:22.954Z,4.32
2022-12-17T18:59:53.331Z,4.70
2022-12-17T19:02:20.852Z,3.70
2022-12-17T19:04:48.272Z,4.28
2022-12-17T19:07:16.000Z,3.80
2022-12-17T19:09:43.486Z,4.00
2022-12-17T19:12:11.405Z,3.65
2022-12-17T19:14:38.736Z,3.42
2022-12-17T19:17:06.372Z,4.05
2022-12-17T19:19:33.749Z,4.32
2022-12-17T19:22:01.180Z,4.85
2022-12-17T19:24:28.603Z,4.40
2022-12-17T19:26:56.987Z,4.00
2022-12-17T19:29:24.517Z,3.50
2022-12-17T19:31:52.169Z,3.95
2022-12-17T19:34:20.187Z,4.50
2022-12-17T19:36:47.602Z,3.85
2022-12-17T19:39:16.248Z,3.60
2022-12-17T19:41:43.772Z,4.15
2022-12-17T19:44:15.075Z,5.10
2022-12-17T19:46:43.204Z,5.68
2022-12-17T19:49:14.171Z,5.25
2022-12-17T19:51:44.259Z,5.10
2022-12-17T19:54:17.268Z,5.80
2022-12-17T19:56:45.517Z,5.75
2022-12-17T19:59:13.694Z,3.78
2022-12-17T20:01:45.425Z,4.15
2022-12-17T20:04:13.613Z,4.60
2022-12-17T20:06:41.056Z,4.10
2022-12-17T20:09:08.492Z,4.50
2022-12-17T20:11:36.354Z,4.18
2022-12-17T20:14:06.908Z,4.32
2022-12-17T20:16:35.767Z,4.63
2022-12-17T20:19:04.196Z,4.28
2022-12-17T20:21:31.610Z,4.65
2022-12-17T20:23:59.000Z,3.70
2022-12-17T20:26:26.462Z,4.78
2022-12-17T20:28:53.811Z,5.18
2022-12-17T20:31:21.170Z,4.35
2022-12-17T20:33:48.700Z,8.88
2022-12-17T20:36:17.677Z,5.32
2022-12-17T20:38:45.522Z,4.30
2022-12-17T20:41:20.428Z,3.97
2022-12-17T20:43:48.328Z,3.50
2022-12-17T20:46:15.798Z,3.83
2022-12-17T20:48:43.884Z,4.00
2022-12-17T20:51:12.913Z,4.72
2022-12-17T20:53:40.447Z,3.75
2022-12-17T20:56:09.725Z,4.35
2022-12-17T20:58:37.732Z,4.53
2022-12-17T21:01:06.396Z,3.90
2022-12-17T21:03:34.488Z,3.72
2022-12-17T21:06:09.183Z,3.85
2022-12-17T21:08:37.124Z,4.18
2022-12-17T21:11:04.846Z,4.38
2022-12-17T21:13:32.347Z,4.80
2022-12-17T21:16:00.503Z,3.88
2022-12-17T21:18:28.760Z,3.45
2022-12-17T21:21:00.434Z,4.90
2022-12-17T21:23:28.774Z,4.68
2022-12-17T21:26:10.252Z,6.40
2022-12-17T21:28:39.093Z,4.15
2022-12-17T21:31:06.891Z,4.82
2022-12-17T21:33:34.228Z,3.80
2022-12-17T21:36:07.835Z,4.20
2022-12-17T21:38:35.846Z,3.97
2022-12-17T21:41:08.068Z,3.30
2022-12-17T21:43:37.223Z,3.33
2022-12-17T21:46:05.661Z,3.38
2022-12-17T21:48:39.707Z,3.60
2022-12-17T21:51:10.122Z,4.38
2022-12-17T21:53:42.093Z,3.47
2022-12-17T21:56:11.302Z,3.97
2022-12-17T21:58:39.347Z,3.28
2022-12-17T22:01:16.364Z,3.58
2022-12-17T22:03:47.675Z,3.30
2022-12-17T22:06:21.796Z,3.95
2022-12-17T22:08:50.285Z,3.85
2022-12-17T22:11:25.141Z,4.28
2022-12-17T22:14:07.430Z,4.70
2022-12-17T22:16:39.743Z,3.42
2022-12-17T22:19:07.821Z,3.67
2022-12-17T22:21:35.955Z,3.83
2022-12-17T22:24:03.839Z,3.88
2022-12-17T22:26:31.346Z,3.55
2022-12-17T22:28:58.678Z,3.50
2022-12-17T22:31:44.450Z,3.35
2022-12-17T22:35:04.704Z,3.25
2022-12-17T22:40:15.937Z,2.63
2022-12-17T22:44:28.890Z,2.75
2022-12-17T22:44:36.666Z,3.70
2022-12-17T22:45:41.897Z,2.60
2022-12-17T22:48:10.034Z,3.50
2022-12-17T22:50:45.596Z,3.00
2022-12-17T22:53:15.922Z,2.90
2022-12-17T22:55:43.855Z,3.30
2022-12-17T22:58:11.487Z,3.72
2022-12-17T23:00:39.080Z,2.75
2022-12-17T23:03:06.542Z,4.07
2022-12-17T23:05:33.953Z,3.25
2022-12-17T23:08:01.497Z,3.00
2022-12-17T23:10:29.086Z,3.45
2022-12-17T23:12:57.255Z,2.60
2022-12-17T23:15:27.338Z,2.65
2022-12-17T23:17:56.387Z,3.85
2022-12-17T23:20:24.401Z,3.70
2022-12-17T23:22:51.920Z,3.13
2022-12-17T23:25:19.259Z,3.63
2022-12-17T23:27:47.175Z,3.75
2022-12-17T23:30:15.668Z,3.05
2022-12-17T23:32:43.238Z,3.03
2022-12-17T23:35:10.993Z,2.90
2022-12-17T23:37:40.161Z,3.25
2022-12-17T23:40:11.325Z,4.00
2022-12-17T23:42:38.851Z,2.72
2022-12-17T23:45:06.785Z,3.30
2022-12-17T23:47:34.141Z,3.20
2022-12-17T23:50:01.705Z,2.97
2022-12-17T23:52:28.974Z,2.85
2022-12-17T23:54:56.562Z,2.65
2022-12-17T23:57:23.838Z,3.15
2022-12-17T23:59:51.248Z,2.47
